createdAt,value
2022-11-28T00:00:33.841Z,7.46
2022-11-28T00:03:25.808Z,8.42
2022-11-28T00:05:56.596Z,9.13
2022-11-28T00:08:27.590Z,9.40
2022-11-28T00:10:58.159Z,9.59
2022-11-28T00:13:29.206Z,10.01
2022-11-28T00:16:00.592Z,9.60
2022-11-28T00:18:31.940Z,8.42
2022-11-28T00:21:03.631Z,7.40
2022-11-28T00:23:34.849Z,6.93
2022-11-28T00:26:06.401Z,7.81
2022-11-28T00:28:37.183Z,8.90
2022-11-28T00:31:08.533Z,9.57
2022-11-28T00:33:39.847Z,9.72
2022-11-28T00:36:11.430Z,9.88
2022-11-28T00:38:42.946Z,9.88
2022-11-28T00:41:14.903Z,8.82
2022-11-28T00:43:49.539Z,7.68
2022-11-28T00:46:21.665Z,7.13
2022-11-28T00:48:53.115Z,8.05
2022-11-28T00:51:24.587Z,9.00
2022-11-28T00:53:56.393Z,9.75
2022-11-28T00:56:27.611Z,10.16
2022-11-28T00:58:58.790Z,10.31
2022-11-28T01:01:38.327Z,9.32
2022-11-28T01:04:10.968Z,8.08
2022-11-28T01:06:43.276Z,7.48
2022-11-28T01:09:16.324Z,8.34
2022-11-28T01:11:49.550Z,9.32
2022-11-28T01:14:21.710Z,9.85
2022-11-28T01:16:53.126Z,10.26
2022-11-28T01:19:24.204Z,10.28
2022-11-28T01:21:54.935Z,9.10
2022-11-28T01:24:25.834Z,7.83
2022-11-28T01:26:56.223Z,7.38
2022-11-28T01:29:27.550Z,8.14
2022-11-28T01:31:58.949Z,8.99
2022-11-28T01:34:29.837Z,9.36
2022-11-28T01:37:02.073Z,9.64
2022-11-28T01:39:33.310Z,9.57
2022-11-28T01:42:03.825Z,8.49
2022-11-28T01:44:51.641Z,7.52
2022-11-28T01:47:23.774Z,8.11
2022-11-28T01:49:55.842Z,8.70
2022-11-28T01:52:26.633Z,9.08
2022-11-28T01:54:59.911Z,9.19
2022-11-28T01:57:31.016Z,9.45
2022-11-28T02:00:05.732Z,9.46
2022-11-28T02:02:45.675Z,8.34
2022-11-28T02:05:17.945Z,7.45
2022-11-28T02:07:48.656Z,8.08
2022-11-28T02:10:20.207Z,8.79
2022-11-28T02:13:01.151Z,9.25
2022-11-28T02:15:41.813Z,9.60
2022-11-28T02:18:23.679Z,9.77
2022-11-28T02:21:03.901Z,8.59
2022-11-28T02:23:43.100Z,7.35
2022-11-28T02:26:24.955Z,6.95
2022-11-28T02:29:12.182Z,7.93
2022-11-28T02:31:56.797Z,8.74
2022-11-28T02:34:29.939Z,9.29
2022-11-28T02:37:04.648Z,9.61
2022-11-28T02:39:39.075Z,9.64
2022-11-28T02:42:13.594Z,8.40
2022-11-28T02:44:46.064Z,7.24
2022-11-28T02:47:19.670Z,7.41
2022-11-28T02:49:52.965Z,8.34
2022-11-28T02:52:25.839Z,8.99
2022-11-28T02:54:56.935Z,9.46
2022-11-28T02:57:30.590Z,9.59
2022-11-28T03:00:01.733Z,8.67
2022-11-28T03:02:33.449Z,7.51
2022-11-28T03:05:07.181Z,7.72
2022-11-28T03:07:47.940Z,8.40
2022-11-28T03:10:24.768Z,8.93
2022-11-28T03:12:59.390Z,9.23
2022-11-28T03:15:33.893Z,9.63
2022-11-28T03:18:12.764Z,9.51
2022-11-28T03:20:46.650Z,8.25
2022-11-28T03:23:18.464Z,7.35
2022-11-28T03:25:56.979Z,7.96
2022-11-28T03:28:32.558Z,8.72
2022-11-28T03:31:04.473Z,9.06
2022-11-28T03:33:37.905Z,9.25
2022-11-28T03:36:10.782Z,9.48
2022-11-28T03:38:43.485Z,9.07
2022-11-28T03:41:16.457Z,7.86
2022-11-28T03:43:50.893Z,7.09
2022-11-28T03:46:23.894Z,7.89
2022-11-28T03:48:56.700Z,8.66
2022-11-28T03:51:30.187Z,9.29
2022-11-28T03:54:03.181Z,9.67
2022-11-28T03:56:37.773Z,8.72
2022-11-28T03:59:10.953Z,7.43
2022-11-28T04:01:46.033Z,7.42
2022-11-28T04:04:19.537Z,8.36
2022-11-28T04:06:54.590Z,9.10
2022-11-28T04:09:32.275Z,9.40
2022-11-28T04:12:06.184Z,9.65
2022-11-28T04:14:39.052Z,9.52
2022-11-28T04:17:12.264Z,8.35
2022-11-28T04:19:41.456Z,7.23
2022-11-28T04:22:14.508Z,7.45
2022-11-28T04:24:48.575Z,8.40
2022-11-28T04:27:22.783Z,9.16
2022-11-28T04:29:55.343Z,9.62
2022-11-28T04:32:27.104Z,9.95
2022-11-28T04:36:06.957Z,8.57
2022-11-28T04:38:39.392Z,7.58
2022-11-28T04:41:12.829Z,8.06
2022-11-28T04:43:47.621Z,8.74
2022-11-28T04:46:20.366Z,9.22
2022-11-28T04:48:51.069Z,9.59
2022-11-28T04:51:24.003Z,9.01
2022-11-28T04:53:58.435Z,7.73
2022-11-28T04:56:30.453Z,6.86
2022-11-28T04:59:01.960Z,7.44
2022-11-28T05:01:33.820Z,8.41
2022-11-28T05:04:04.369Z,9.06
2022-11-28T05:06:36.565Z,9.23
2022-11-28T05:09:07.739Z,9.36
2022-11-28T05:11:39.055Z,8.20
2022-11-28T05:14:09.983Z,7.25
2022-11-28T05:16:40.958Z,7.93
2022-11-28T05:19:11.641Z,8.79
2022-11-28T05:21:42.928Z,9.22
2022-11-28T05:24:13.920Z,9.26
2022-11-28T05:26:44.797Z,9.35
2022-11-28T05:29:15.392Z,8.17
2022-11-28T05:31:46.529Z,7.31
2022-11-28T05:34:17.368Z,8.01
2022-11-28T05:36:48.736Z,8.80
2022-11-28T05:39:19.248Z,9.21
2022-11-28T05:41:50.799Z,9.31
2022-11-28T05:44:26.602Z,8.42
2022-11-28T05:46:58.212Z,7.17
2022-11-28T05:49:29.197Z,6.52
2022-11-28T05:52:00.291Z,7.35
2022-11-28T05:54:32.044Z,8.26
2022-11-28T05:57:03.189Z,8.91
2022-11-28T05:59:33.876Z,9.33
2022-11-28T06:02:04.922Z,9.45
2022-11-28T06:04:35.561Z,8.16
2022-11-28T06:07:06.941Z,7.21
2022-11-28T06:09:37.977Z,7.82
2022-11-28T06:12:09.582Z,8.60
2022-11-28T06:14:40.680Z,9.18
2022-11-28T06:17:11.614Z,9.56
2022-11-28T06:19:42.401Z,9.50
2022-11-28T06:22:13.705Z,8.35
2022-11-28T06:24:44.322Z,7.27
2022-11-28T06:27:15.372Z,7.55
2022-11-28T06:29:45.761Z,8.47
2022-11-28T06:32:21.881Z,9.08
2022-11-28T06:34:52.793Z,9.52
2022-11-28T06:37:23.856Z,9.55
2022-11-28T06:39:54.352Z,8.40
2022-11-28T06:42:25.290Z,7.28
2022-11-28T06:44:55.719Z,6.76
2022-11-28T06:47:26.654Z,7.63
2022-11-28T06:49:57.277Z,8.48
2022-11-28T06:52:28.831Z,8.97
2022-11-28T06:54:59.990Z,9.53
2022-11-28T06:57:32.845Z,9.52
2022-11-28T07:00:03.699Z,8.42
2022-11-28T07:02:34.550Z,7.35
2022-11-28T07:05:06.047Z,7.61
2022-11-28T07:07:52.770Z,8.57
2022-11-28T07:10:25.222Z,9.36
2022-11-28T07:12:56.550Z,9.84
2022-11-28T07:15:27.548Z,9.87
2022-11-28T07:17:58.569Z,8.69
2022-11-28T07:20:29.162Z,7.45
2022-11-28T07:23:01.701Z,7.32
2022-11-28T07:25:32.427Z,8.04
2022-11-28T07:28:03.397Z,8.56
2022-11-28T07:30:34.475Z,9.12
2022-11-28T07:33:05.247Z,9.40
2022-11-28T07:35:35.975Z,8.48
2022-11-28T07:38:08.012Z,7.25
2022-11-28T07:40:39.295Z,7.37
2022-11-28T07:43:10.524Z,8.31
2022-11-28T07:45:59.334Z,9.23
2022-11-28T07:48:31.556Z,9.42
2022-11-28T07:51:05.423Z,8.24
2022-11-28T07:53:37.673Z,7.25
2022-11-28T07:56:10.082Z,6.84
2022-11-28T07:58:40.841Z,7.81
2022-11-28T08:01:12.473Z,8.91
2022-11-28T08:03:44.790Z,9.48
2022-11-28T08:06:17.286Z,9.64
2022-11-28T08:08:48.627Z,8.75
2022-11-28T08:11:20.035Z,7.55
2022-11-28T08:13:51.910Z,7.13
2022-11-28T08:16:25.226Z,8.21
2022-11-28T08:18:56.716Z,9.11
2022-11-28T08:21:28.823Z,9.60
2022-11-28T08:24:00.433Z,9.74
2022-11-28T08:26:32.175Z,8.67
2022-11-28T08:29:03.770Z,7.55
2022-11-28T08:31:34.978Z,7.10
2022-11-28T08:34:07.143Z,8.06
2022-11-28T08:36:38.391Z,8.93
2022-11-28T08:39:22.963Z,9.51
2022-11-28T08:41:57.553Z,9.69
2022-11-28T08:44:30.627Z,8.53
2022-11-28T08:47:01.337Z,7.55
2022-11-28T08:49:32.732Z,7.19
2022-11-28T08:52:03.981Z,8.23
2022-11-28T08:54:35.066Z,9.30
2022-11-28T08:57:05.857Z,9.83
2022-11-28T08:59:37.548Z,8.93
2022-11-28T09:02:08.390Z,7.83
2022-11-28T09:04:39.734Z,7.34
2022-11-28T09:07:10.264Z,8.26
2022-11-28T09:09:41.652Z,9.25
2022-11-28T09:12:12.340Z,9.77
2022-11-28T09:14:43.508Z,9.01
2022-11-28T09:17:16.145Z,8.01
2022-11-28T09:19:47.508Z,8.36
2022-11-28T09:22:18.104Z,9.43
2022-11-28T09:24:48.981Z,9.80
2022-11-28T09:27:19.618Z,9.02
2022-11-28T09:29:50.747Z,8.01
2022-11-28T09:32:21.589Z,8.32
2022-11-28T09:34:55.699Z,9.30
2022-11-28T09:37:26.845Z,9.92
2022-11-28T09:40:12.583Z,9.67
2022-11-28T09:42:45.142Z,8.51
2022-11-28T09:45:17.162Z,8.08
2022-11-28T09:47:49.957Z,9.03
2022-11-28T09:50:23.742Z,10.04
2022-11-28T09:53:00.122Z,10.12
2022-11-28T09:55:35.258Z,9.15
2022-11-28T09:58:07.917Z,8.30
2022-11-28T10:00:40.342Z,7.98
2022-11-28T10:03:26.647Z,8.97
2022-11-28T10:06:03.351Z,10.09
2022-11-28T10:08:39.179Z,10.15
2022-11-28T10:11:16.286Z,9.37
2022-11-28T10:14:07.856Z,8.63
2022-11-28T10:16:45.132Z,8.77
2022-11-28T10:19:46.112Z,9.99
2022-11-28T10:22:11.404Z,10.59
2022-11-28T10:24:44.124Z,9.76
2022-11-28T10:27:15.689Z,8.88
2022-11-28T10:29:48.791Z,8.28
2022-11-28T10:32:18.084Z,9.04
2022-11-28T10:34:51.453Z,10.19
2022-11-28T10:37:25.492Z,10.83
2022-11-28T10:39:57.962Z,9.96
2022-11-28T10:42:32.378Z,9.12
2022-11-28T10:45:07.756Z,8.50
2022-11-28T10:47:55.457Z,8.34
2022-11-28T10:50:33.997Z,9.64
2022-11-28T10:53:08.132Z,10.45
2022-11-28T10:55:44.558Z,9.91
2022-11-28T10:58:18.332Z,9.03
2022-11-28T11:00:50.731Z,8.42
2022-11-28T11:03:23.724Z,9.05
2022-11-28T11:05:54.658Z,10.26
2022-11-28T11:08:26.970Z,10.50
2022-11-28T11:11:01.502Z,9.72
2022-11-28T11:13:33.310Z,8.97
2022-11-28T11:16:05.612Z,8.32
2022-11-28T11:18:37.903Z,8.28
2022-11-28T11:21:15.998Z,9.54
2022-11-28T11:23:47.686Z,10.20
2022-11-28T11:26:24.816Z,9.63
2022-11-28T11:28:56.406Z,8.78
2022-11-28T11:31:28.116Z,8.15
2022-11-28T11:34:05.105Z,8.33
2022-11-28T11:36:39.405Z,9.69
2022-11-28T11:39:18.193Z,10.51
2022-11-28T11:41:49.674Z,9.87
2022-11-28T11:44:29.477Z,9.06
2022-11-28T11:47:03.326Z,8.47
2022-11-28T11:49:36.024Z,8.07
2022-11-28T11:52:14.953Z,8.14
2022-11-28T11:54:56.621Z,9.50
2022-11-28T11:57:35.219Z,10.11
2022-11-28T12:00:08.276Z,9.38
2022-11-28T12:02:47.656Z,8.55
2022-11-28T12:05:19.439Z,8.28
2022-11-28T12:07:54.042Z,9.40
2022-11-28T12:10:26.334Z,10.19
2022-11-28T12:12:57.144Z,9.66
2022-11-28T12:15:32.550Z,8.84
2022-11-28T12:18:15.247Z,8.25
2022-11-28T12:20:54.201Z,8.67
2022-11-28T12:23:34.899Z,10.02
2022-11-28T12:26:09.648Z,10.65
2022-11-28T12:28:49.990Z,9.80
2022-11-28T12:31:28.193Z,9.04
2022-11-28T12:34:05.089Z,8.47
2022-11-28T12:36:39.283Z,8.29
2022-11-28T12:39:19.284Z,9.50
2022-11-28T12:42:06.464Z,10.50
2022-11-28T12:44:41.150Z,10.09
2022-11-28T12:47:15.505Z,9.35
2022-11-28T12:49:52.447Z,8.80
2022-11-28T12:52:27.097Z,8.42
2022-11-28T12:55:09.299Z,8.52
2022-11-28T12:57:44.862Z,9.84
2022-11-28T13:00:16.144Z,10.30
2022-11-28T13:02:52.331Z,9.60
2022-11-28T13:05:37.227Z,8.87
2022-11-28T13:08:17.222Z,8.34
2022-11-28T13:10:51.376Z,8.26
2022-11-28T13:13:26.003Z,9.53
2022-11-28T13:16:00.475Z,10.48
2022-11-28T13:18:40.014Z,9.83
2022-11-28T13:21:19.656Z,9.13
2022-11-28T13:23:53.447Z,8.55
2022-11-28T13:26:32.869Z,8.21
2022-11-28T13:29:07.746Z,9.01
2022-11-28T13:31:41.365Z,10.01
2022-11-28T13:34:14.287Z,9.67
2022-11-28T13:39:43.272Z,8.35
2022-11-28T13:42:58.884Z,7.89
2022-11-28T13:45:25.059Z,8.16
2022-11-28T13:48:00.742Z,9.49
2022-11-28T13:50:36.285Z,9.63
2022-11-28T13:56:27.944Z,8.02
2022-11-28T13:59:01.014Z,7.94
2022-11-28T14:01:44.160Z,9.21
2022-11-28T14:04:16.230Z,9.96
2022-11-28T14:06:49.496Z,9.29
2022-11-28T14:09:30.859Z,8.45
2022-11-28T14:12:11.227Z,7.84
2022-11-28T14:14:53.536Z,7.76
2022-11-28T14:17:31.954Z,9.10
2022-11-28T14:20:11.998Z,10.03
2022-11-28T14:22:50.513Z,9.40
2022-11-28T14:25:25.489Z,8.49
2022-11-28T14:27:57.925Z,7.85
2022-11-28T14:30:32.161Z,7.55
2022-11-28T14:33:05.696Z,8.52
2022-11-28T14:35:34.726Z,9.37
2022-11-28T14:38:27.630Z,8.82
2022-11-28T14:41:03.551Z,7.90
2022-11-28T14:43:35.145Z,7.30
2022-11-28T14:46:26.677Z,7.54
2022-11-28T14:49:23.869Z,8.97
2022-11-28T14:52:37.180Z,10.09
2022-11-28T14:55:01.925Z,9.87
2022-11-28T14:57:33.038Z,8.80
2022-11-28T15:00:16.667Z,7.83
2022-11-28T15:02:53.254Z,7.10
2022-11-28T15:05:40.763Z,6.88
2022-11-28T15:08:32.899Z,8.11
2022-11-28T15:11:11.912Z,9.24
2022-11-28T15:13:52.125Z,9.49
2022-11-28T15:16:24.184Z,8.41
2022-11-28T15:18:57.658Z,7.45
2022-11-28T15:21:28.841Z,6.76
2022-11-28T15:23:59.479Z,6.60
2022-11-28T15:26:31.671Z,7.82
2022-11-28T15:29:14.197Z,9.02
2022-11-28T15:31:49.419Z,9.75
2022-11-28T15:34:24.682Z,9.11
2022-11-28T15:36:56.116Z,7.88
2022-11-28T15:39:28.801Z,7.01
2022-11-28T15:42:01.369Z,7.17
2022-11-28T15:44:32.817Z,8.31
2022-11-28T15:47:03.675Z,9.19
2022-11-28T15:49:35.578Z,9.45
2022-11-28T15:52:06.663Z,8.49
2022-11-28T15:54:41.582Z,7.42
2022-11-28T15:57:20.494Z,6.60
2022-11-28T15:59:54.012Z,6.34
2022-11-28T16:02:30.306Z,7.47
2022-11-28T16:05:22.379Z,8.65
2022-11-28T16:07:53.498Z,9.08
2022-11-28T16:10:25.747Z,8.34
2022-11-28T16:12:59.864Z,7.27
2022-11-28T16:15:31.376Z,6.49
2022-11-28T16:18:02.044Z,6.15
2022-11-28T16:20:35.523Z,7.13
2022-11-28T16:23:04.406Z,8.01
2022-11-28T16:25:35.239Z,8.65
2022-11-28T16:28:06.358Z,8.78
2022-11-28T16:30:38.294Z,7.83
2022-11-28T16:33:22.401Z,6.75
2022-11-28T16:36:12.584Z,6.32
2022-11-28T16:38:43.929Z,7.39
2022-11-28T16:41:18.649Z,8.47
2022-11-28T16:43:51.538Z,9.12
2022-11-28T16:46:23.293Z,8.23
2022-11-28T16:48:57.155Z,7.01
2022-11-28T16:51:38.002Z,6.16
2022-11-28T16:54:28.432Z,5.95
2022-11-28T16:57:09.747Z,7.33
2022-11-28T16:59:40.622Z,8.38
2022-11-28T17:02:15.767Z,9.06
2022-11-28T17:04:47.583Z,9.23
2022-11-28T17:07:20.501Z,8.05
2022-11-28T17:09:51.526Z,6.78
2022-11-28T17:12:25.667Z,6.49
2022-11-28T17:14:56.557Z,7.65
2022-11-28T17:17:28.632Z,8.51
2022-11-28T17:19:59.463Z,9.08
2022-11-28T17:22:40.386Z,8.70
2022-11-28T17:25:16.183Z,7.41
2022-11-28T17:27:48.374Z,6.39
2022-11-28T17:30:20.456Z,5.67
2022-11-28T17:32:52.446Z,5.40
2022-11-28T17:35:24.451Z,6.47
2022-11-28T17:37:55.264Z,7.63
2022-11-28T17:40:36.877Z,8.32
2022-11-28T17:43:10.659Z,8.86
2022-11-28T17:45:42.007Z,8.98
2022-11-28T17:48:16.238Z,7.87
2022-11-28T17:50:48.796Z,6.69
2022-11-28T17:53:20.377Z,5.83
2022-11-28T17:55:58.765Z,5.46
2022-11-28T17:58:29.522Z,6.55
2022-11-28T18:01:01.224Z,7.66
2022-11-28T18:03:32.201Z,8.34
2022-11-28T18:06:02.956Z,8.51
2022-11-28T18:08:34.044Z,7.64
2022-11-28T18:11:05.518Z,6.46
2022-11-28T18:13:36.457Z,5.54
2022-11-28T18:16:08.039Z,5.21
2022-11-28T18:18:39.418Z,6.15
2022-11-28T18:21:11.069Z,7.26
2022-11-28T18:23:43.281Z,7.99
2022-11-28T18:26:16.372Z,8.35
2022-11-28T18:28:47.407Z,8.46
2022-11-28T18:31:19.530Z,7.36
2022-11-28T18:33:51.084Z,6.18
2022-11-28T18:36:22.929Z,5.57
2022-11-28T18:41:42.854Z,7.58
2022-11-28T18:44:13.483Z,8.07
2022-11-28T18:46:44.991Z,8.53
2022-11-28T18:49:16.826Z,7.82
2022-11-28T18:51:48.584Z,6.54
2022-11-28T18:54:21.562Z,5.50
2022-11-28T18:56:53.035Z,5.05
2022-11-28T18:59:24.167Z,6.10
2022-11-28T19:01:55.863Z,7.28
2022-11-28T19:04:26.763Z,8.05
2022-11-28T19:06:59.232Z,8.22
2022-11-28T19:09:30.582Z,7.05
2022-11-28T19:12:01.724Z,5.86
2022-11-28T19:14:32.928Z,5.29
2022-11-28T19:17:04.015Z,6.06
2022-11-28T19:19:35.764Z,7.06
2022-11-28T19:22:10.803Z,7.91
2022-11-28T19:24:42.864Z,8.33
2022-11-28T19:27:14.699Z,8.37
2022-11-28T19:29:46.464Z,7.15
2022-11-28T19:32:18.293Z,5.90
2022-11-28T19:34:52.460Z,5.02
2022-11-28T19:37:22.886Z,4.65
2022-11-28T19:40:01.074Z,5.72
2022-11-28T19:42:33.843Z,6.86
2022-11-28T19:45:05.007Z,7.65
2022-11-28T19:47:36.532Z,8.17
2022-11-28T19:50:12.253Z,7.90
2022-11-28T19:52:45.202Z,6.65
2022-11-28T19:55:15.922Z,5.44
2022-11-28T19:57:47.744Z,4.88
2022-11-28T20:00:19.825Z,5.85
2022-11-28T20:02:51.002Z,6.88
2022-11-28T20:05:22.108Z,7.42
2022-11-28T20:07:58.489Z,7.89
2022-11-28T20:10:30.269Z,8.12
2022-11-28T20:13:01.934Z,7.38
2022-11-28T20:15:35.647Z,6.15
2022-11-28T20:18:07.887Z,5.24
2022-11-28T20:20:39.200Z,6.02
2022-11-28T20:23:10.283Z,6.89
2022-11-28T20:25:41.807Z,7.38
2022-11-28T20:28:12.969Z,7.43
2022-11-28T20:30:44.719Z,6.36
2022-11-28T20:33:15.568Z,5.22
2022-11-28T20:35:46.290Z,4.59
2022-11-28T20:38:17.264Z,5.49
2022-11-28T20:40:48.268Z,6.59
2022-11-28T20:43:19.176Z,7.23
2022-11-28T20:45:50.239Z,7.64
2022-11-28T20:48:21.209Z,7.86
2022-11-28T20:50:51.888Z,7.74
2022-11-28T20:53:26.802Z,6.54
2022-11-28T20:56:01.850Z,5.21
2022-11-28T20:58:32.588Z,4.65
2022-11-28T21:01:03.461Z,5.47
2022-11-28T21:03:39.001Z,6.55
2022-11-28T21:06:10.478Z,7.22
2022-11-28T21:08:41.286Z,7.55
2022-11-28T21:11:25.265Z,7.80
2022-11-28T21:14:06.209Z,6.84
2022-11-28T21:16:37.304Z,5.36
2022-11-28T21:19:09.668Z,4.71
2022-11-28T21:21:40.854Z,5.58
2022-11-28T21:24:12.829Z,6.37
2022-11-28T21:26:48.151Z,6.90
2022-11-28T21:29:22.277Z,7.40
2022-11-28T21:31:53.615Z,7.73
2022-11-28T21:34:24.681Z,7.69
2022-11-28T21:36:56.190Z,6.41
2022-11-28T21:39:27.208Z,5.19
2022-11-28T21:41:58.251Z,4.33
2022-11-28T21:44:28.982Z,4.55
2022-11-28T21:46:59.562Z,5.80
2022-11-28T21:49:40.588Z,6.66
2022-11-28T21:52:11.875Z,7.14
2022-11-28T21:54:42.711Z,7.51
2022-11-28T21:57:13.314Z,7.70
2022-11-28T21:59:44.371Z,6.81
2022-11-28T22:02:15.584Z,5.44
2022-11-28T22:04:46.899Z,4.69
2022-11-28T22:07:17.966Z,5.54
2022-11-28T22:09:49.679Z,6.49
2022-11-28T22:12:20.817Z,6.99
2022-11-28T22:14:57.369Z,7.48
2022-11-28T22:17:32.853Z,7.31
2022-11-28T22:20:03.660Z,6.05
2022-11-28T22:22:34.495Z,4.91
2022-11-28T22:25:06.889Z,4.35
2022-11-28T22:27:38.834Z,5.34
2022-11-28T22:30:10.374Z,6.44
2022-11-28T22:32:41.732Z,7.18
2022-11-28T22:35:13.064Z,7.36
2022-11-28T22:37:44.886Z,6.26
2022-11-28T22:40:16.956Z,5.05
2022-11-28T22:42:47.656Z,4.17
2022-11-28T22:45:18.467Z,3.84
2022-11-28T22:47:49.714Z,4.95
2022-11-28T22:50:20.858Z,6.10
2022-11-28T22:52:51.602Z,6.87
2022-11-28T22:55:22.653Z,7.28
2022-11-28T22:58:27.884Z,6.96
2022-11-28T23:00:59.391Z,5.61
2022-11-28T23:03:30.324Z,4.46
2022-11-28T23:06:04.639Z,3.85
2022-11-28T23:08:35.752Z,4.77
2022-11-28T23:11:08.662Z,5.88
2022-11-28T23:13:40.063Z,6.60
2022-11-28T23:16:15.594Z,7.10
2022-11-28T23:18:47.773Z,7.43
2022-11-28T23:21:19.027Z,7.45
2022-11-28T23:23:49.709Z,6.33
2022-11-28T23:26:21.567Z,4.87
2022-11-28T23:28:52.870Z,4.18
2022-11-28T23:31:24.585Z,5.00
2022-11-28T23:33:55.450Z,6.02
2022-11-28T23:36:27.552Z,6.67
2022-11-28T23:38:59.173Z,7.11
2022-11-28T23:41:30.676Z,6.99
2022-11-28T23:44:01.653Z,5.78
2022-11-28T23:46:33.462Z,4.55
2022-11-28T23:49:05.583Z,3.95
2022-11-28T23:51:37.034Z,4.83
2022-11-28T23:54:08.380Z,5.89
2022-11-28T23:56:40.396Z,6.57
2022-11-28T23:59:11.723Z,7.02
